sensor_id;sensor_type;location;lat;lon;timestamp;P1;durP1;ratioP1;P2;durP2;ratioP2
16994;SDS011;8614;48.522;9.206;2023-05-13T00:01:40;11.20;;;10.50;;
16994;SDS011;8614;48.522;9.206;2023-05-13T00:04:07;12.20;;;11.40;;
16994;SDS011;8614;48.522;9.206;2023-05-13T00:06:34;11.83;;;11.03;;
16994;SDS011;8614;48.522;9.206;2023-05-13T00:09:01;12.00;;;11.20;;
16994;SDS011;8614;48.522;9.206;2023-05-13T00:11:28;11.50;;;10.80;;
16994;SDS011;8614;48.522;9.206;2023-05-13T00:13:56;11.67;;;10.87;;
16994;SDS011;8614;48.522;9.206;2023-05-13T00:16:23;11.30;;;10.50;;
16994;SDS011;8614;48.522;9.206;2023-05-13T00:18:51;11.87;;;11.07;;
16994;SDS011;8614;48.522;9.206;2023-05-13T00:21:18;11.60;;;10.80;;
16994;SDS011;8614;48.522;9.206;2023-05-13T00:23:45;11.80;;;10.97;;
16994;SDS011;8614;48.522;9.206;2023-05-13T00:26:12;11.80;;;11.10;;
16994;SDS011;8614;48.522;9.206;2023-05-13T00:28:39;11.60;;;10.80;;
16994;SDS011;8614;48.522;9.206;2023-05-13T00:31:07;11.27;;;10.47;;
16994;SDS011;8614;48.522;9.206;2023-05-13T00:33:35;12.43;;;11.63;;
16994;SDS011;8614;48.522;9.206;2023-05-13T00:36:02;11.53;;;10.83;;
16994;SDS011;8614;48.522;9.206;2023-05-13T00:38:29;12.20;;;11.47;;
16994;SDS011;8614;48.522;9.206;2023-05-13T00:40:56;12.23;;;11.33;;
16994;SDS011;8614;48.522;9.206;2023-05-13T00:43:23;11.80;;;11.00;;
16994;SDS011;8614;48.522;9.206;2023-05-13T00:45:50;12.37;;;11.57;;
16994;SDS011;8614;48.522;9.206;2023-05-13T00:48:18;12.17;;;11.37;;
16994;SDS011;8614;48.522;9.206;2023-05-13T00:50:45;11.83;;;11.13;;
16994;SDS011;8614;48.522;9.206;2023-05-13T00:53:13;12.17;;;11.17;;
16994;SDS011;8614;48.522;9.206;2023-05-13T00:55:41;11.67;;;10.90;;
16994;SDS011;8614;48.522;9.206;2023-05-13T00:58:08;12.30;;;11.50;;
16994;SDS011;8614;48.522;9.206;2023-05-13T01:00:36;12.00;;;11.20;;
16994;SDS011;8614;48.522;9.206;2023-05-13T01:03:10;11.80;;;10.90;;
16994;SDS011;8614;48.522;9.206;2023-05-13T01:05:42;11.80;;;11.00;;
16994;SDS011;8614;48.522;9.206;2023-05-13T01:08:18;12.07;;;11.27;;
16994;SDS011;8614;48.522;9.206;2023-05-13T01:10:54;11.83;;;11.03;;
16994;SDS011;8614;48.522;9.206;2023-05-13T01:13:26;11.97;;;11.00;;
16994;SDS011;8614;48.522;9.206;2023-05-13T01:15:58;11.37;;;10.67;;
16994;SDS011;8614;48.522;9.206;2023-05-13T01:18:30;11.77;;;10.97;;
16994;SDS011;8614;48.522;9.206;2023-05-13T01:21:02;12.00;;;11.20;;
16994;SDS011;8614;48.522;9.206;2023-05-13T01:23:32;11.33;;;10.63;;
16994;SDS011;8614;48.522;9.206;2023-05-13T01:25:59;11.70;;;10.90;;
16994;SDS011;8614;48.522;9.206;2023-05-13T01:28:26;11.50;;;10.70;;
16994;SDS011;8614;48.522;9.206;2023-05-13T01:30:54;11.10;;;10.30;;
16994;SDS011;8614;48.522;9.206;2023-05-13T01:33:23;11.67;;;10.83;;
16994;SDS011;8614;48.522;9.206;2023-05-13T01:35:51;11.03;;;10.20;;
16994;SDS011;8614;48.522;9.206;2023-05-13T01:38:18;11.43;;;10.53;;
16994;SDS011;8614;48.522;9.206;2023-05-13T01:40:51;11.57;;;10.77;;
16994;SDS011;8614;48.522;9.206;2023-05-13T01:43:19;11.87;;;10.93;;
16994;SDS011;8614;48.522;9.206;2023-05-13T01:45:46;11.73;;;10.90;;
16994;SDS011;8614;48.522;9.206;2023-05-13T01:48:13;11.37;;;10.57;;
16994;SDS011;8614;48.522;9.206;2023-05-13T01:50:43;11.70;;;10.90;;
16994;SDS011;8614;48.522;9.206;2023-05-13T01:53:10;10.97;;;10.27;;
16994;SDS011;8614;48.522;9.206;2023-05-13T01:55:37;10.73;;;10.03;;
16994;SDS011;8614;48.522;9.206;2023-05-13T01:58:06;11.20;;;10.40;;
16994;SDS011;8614;48.522;9.206;2023-05-13T02:00:32;11.43;;;10.63;;
16994;SDS011;8614;48.522;9.206;2023-05-13T02:02:59;11.43;;;10.63;;
16994;SDS011;8614;48.522;9.206;2023-05-13T02:05:26;11.87;;;10.97;;
16994;SDS011;8614;48.522;9.206;2023-05-13T02:07:54;11.80;;;11.00;;
16994;SDS011;8614;48.522;9.206;2023-05-13T02:10:21;11.20;;;10.40;;
16994;SDS011;8614;48.522;9.206;2023-05-13T02:12:48;10.77;;;10.07;;
16994;SDS011;8614;48.522;9.206;2023-05-13T02:15:16;11.80;;;10.90;;
16994;SDS011;8614;48.522;9.206;2023-05-13T02:17:43;11.33;;;10.60;;
16994;SDS011;8614;48.522;9.206;2023-05-13T02:20:10;11.60;;;10.87;;
16994;SDS011;8614;48.522;9.206;2023-05-13T02:22:38;11.67;;;10.90;;
16994;SDS011;8614;48.522;9.206;2023-05-13T02:25:06;10.70;;;10.00;;
16994;SDS011;8614;48.522;9.206;2023-05-13T02:27:35;11.03;;;10.23;;
16994;SDS011;8614;48.522;9.206;2023-05-13T02:30:03;10.70;;;9.80;;
16994;SDS011;8614;48.522;9.206;2023-05-13T02:32:33;10.70;;;10.00;;
16994;SDS011;8614;48.522;9.206;2023-05-13T02:35:00;10.50;;;9.80;;
16994;SDS011;8614;48.522;9.206;2023-05-13T02:37:27;11.00;;;10.30;;
16994;SDS011;8614;48.522;9.206;2023-05-13T02:39:59;10.60;;;9.80;;
16994;SDS011;8614;48.522;9.206;2023-05-13T02:42:27;10.20;;;9.50;;
16994;SDS011;8614;48.522;9.206;2023-05-13T02:44:54;11.53;;;10.63;;
16994;SDS011;8614;48.522;9.206;2023-05-13T02:47:22;10.40;;;9.70;;
16994;SDS011;8614;48.522;9.206;2023-05-13T02:49:50;11.20;;;10.47;;
16994;SDS011;8614;48.522;9.206;2023-05-13T02:52:20;10.40;;;9.70;;
16994;SDS011;8614;48.522;9.206;2023-05-13T02:54:47;10.27;;;9.57;;
16994;SDS011;8614;48.522;9.206;2023-05-13T02:57:14;9.53;;;8.83;;
16994;SDS011;8614;48.522;9.206;2023-05-13T02:59:42;10.37;;;9.67;;
16994;SDS011;8614;48.522;9.206;2023-05-13T03:02:09;10.40;;;9.60;;
16994;SDS011;8614;48.522;9.206;2023-05-13T03:04:36;10.67;;;9.90;;
16994;SDS011;8614;48.522;9.206;2023-05-13T03:07:06;10.37;;;9.67;;
16994;SDS011;8614;48.522;9.206;2023-05-13T03:09:34;10.07;;;9.37;;
16994;SDS011;8614;48.522;9.206;2023-05-13T03:12:03;10.23;;;9.53;;
16994;SDS011;8614;48.522;9.206;2023-05-13T03:14:31;10.53;;;9.73;;
16994;SDS011;8614;48.522;9.206;2023-05-13T03:17:01;10.33;;;9.63;;
16994;SDS011;8614;48.522;9.206;2023-05-13T03:19:28;10.50;;;9.80;;
16994;SDS011;8614;48.522;9.206;2023-05-13T03:21:56;10.30;;;9.60;;
16994;SDS011;8614;48.522;9.206;2023-05-13T03:24:24;10.70;;;10.00;;
16994;SDS011;8614;48.522;9.206;2023-05-13T03:26:51;11.20;;;10.20;;
16994;SDS011;8614;48.522;9.206;2023-05-13T03:29:18;10.50;;;9.80;;
16994;SDS011;8614;48.522;9.206;2023-05-13T03:31:45;10.80;;;10.10;;
16994;SDS011;8614;48.522;9.206;2023-05-13T03:34:12;11.20;;;10.20;;
16994;SDS011;8614;48.522;9.206;2023-05-13T03:36:39;10.93;;;10.13;;
16994;SDS011;8614;48.522;9.206;2023-05-13T03:39:06;10.70;;;10.00;;
16994;SDS011;8614;48.522;9.206;2023-05-13T03:41:34;11.17;;;10.47;;
16994;SDS011;8614;48.522;9.206;2023-05-13T03:44:01;10.57;;;9.87;;
16994;SDS011;8614;48.522;9.206;2023-05-13T03:46:28;11.10;;;10.30;;
16994;SDS011;8614;48.522;9.206;2023-05-13T03:48:56;10.60;;;9.90;;
16994;SDS011;8614;48.522;9.206;2023-05-13T03:51:26;10.27;;;9.57;;
16994;SDS011;8614;48.522;9.206;2023-05-13T03:53:53;10.20;;;9.50;;
16994;SDS011;8614;48.522;9.206;2023-05-13T03:56:20;10.53;;;9.83;;
16994;SDS011;8614;48.522;9.206;2023-05-13T03:58:48;10.70;;;10.00;;
16994;SDS011;8614;48.522;9.206;2023-05-13T04:01:16;11.30;;;10.60;;
16994;SDS011;8614;48.522;9.206;2023-05-13T04:03:43;11.70;;;10.87;;
16994;SDS011;8614;48.522;9.206;2023-05-13T04:06:10;10.77;;;10.07;;
16994;SDS011;8614;48.522;9.206;2023-05-13T04:08:38;11.33;;;10.47;;
16994;SDS011;8614;48.522;9.206;2023-05-13T04:11:06;10.30;;;9.60;;
16994;SDS011;8614;48.522;9.206;2023-05-13T04:13:33;10.90;;;10.10;;
16994;SDS011;8614;48.522;9.206;2023-05-13T04:16:01;10.27;;;9.57;;
16994;SDS011;8614;48.522;9.206;2023-05-13T04:18:28;10.80;;;9.97;;
16994;SDS011;8614;48.522;9.206;2023-05-13T04:20:55;10.23;;;9.53;;
16994;SDS011;8614;48.522;9.206;2023-05-13T04:23:22;10.10;;;9.40;;
16994;SDS011;8614;48.522;9.206;2023-05-13T04:25:49;10.10;;;9.40;;
16994;SDS011;8614;48.522;9.206;2023-05-13T04:28:17;10.40;;;9.70;;
16994;SDS011;8614;48.522;9.206;2023-05-13T04:30:46;10.40;;;9.70;;
16994;SDS011;8614;48.522;9.206;2023-05-13T04:33:14;10.70;;;10.00;;
16994;SDS011;8614;48.522;9.206;2023-05-13T04:35:43;11.00;;;10.30;;
16994;SDS011;8614;48.522;9.206;2023-05-13T04:38:11;10.27;;;9.60;;
16994;SDS011;8614;48.522;9.206;2023-05-13T04:40:38;10.77;;;10.07;;
16994;SDS011;8614;48.522;9.206;2023-05-13T04:43:08;10.80;;;10.10;;
16994;SDS011;8614;48.522;9.206;2023-05-13T04:45:43;11.20;;;10.50;;
16994;SDS011;8614;48.522;9.206;2023-05-13T04:48:12;11.50;;;10.70;;
16994;SDS011;8614;48.522;9.206;2023-05-13T04:50:43;11.17;;;10.30;;
16994;SDS011;8614;48.522;9.206;2023-05-13T04:53:10;10.57;;;9.97;;
16994;SDS011;8614;48.522;9.206;2023-05-13T04:55:37;11.37;;;10.57;;
16994;SDS011;8614;48.522;9.206;2023-05-13T04:58:04;10.90;;;10.03;;
16994;SDS011;8614;48.522;9.206;2023-05-13T05:00:31;10.77;;;10.07;;
16994;SDS011;8614;48.522;9.206;2023-05-13T05:02:58;10.50;;;9.80;;
16994;SDS011;8614;48.522;9.206;2023-05-13T05:05:26;10.03;;;9.33;;
16994;SDS011;8614;48.522;9.206;2023-05-13T05:07:53;9.97;;;9.37;;
16994;SDS011;8614;48.522;9.206;2023-05-13T05:10:20;9.83;;;9.23;;
16994;SDS011;8614;48.522;9.206;2023-05-13T05:12:51;9.83;;;9.13;;
16994;SDS011;8614;48.522;9.206;2023-05-13T05:15:20;9.60;;;9.00;;
16994;SDS011;8614;48.522;9.206;2023-05-13T05:17:50;10.30;;;9.60;;
16994;SDS011;8614;48.522;9.206;2023-05-13T05:20:17;10.10;;;9.40;;
16994;SDS011;8614;48.522;9.206;2023-05-13T05:22:48;10.83;;;10.10;;
16994;SDS011;8614;48.522;9.206;2023-05-13T05:25:17;10.80;;;10.10;;
16994;SDS011;8614;48.522;9.206;2023-05-13T05:27:43;10.10;;;9.40;;
16994;SDS011;8614;48.522;9.206;2023-05-13T05:30:11;10.50;;;9.80;;
16994;SDS011;8614;48.522;9.206;2023-05-13T05:32:39;10.20;;;9.50;;
16994;SDS011;8614;48.522;9.206;2023-05-13T05:35:06;10.40;;;9.70;;
16994;SDS011;8614;48.522;9.206;2023-05-13T05:37:34;9.93;;;9.23;;
16994;SDS011;8614;48.522;9.206;2023-05-13T05:40:03;10.00;;;9.30;;
16994;SDS011;8614;48.522;9.206;2023-05-13T05:42:32;10.23;;;9.60;;
16994;SDS011;8614;48.522;9.206;2023-05-13T05:44:59;10.40;;;9.60;;
16994;SDS011;8614;48.522;9.206;2023-05-13T05:47:26;10.50;;;9.80;;
16994;SDS011;8614;48.522;9.206;2023-05-13T05:49:53;10.83;;;10.13;;
16994;SDS011;8614;48.522;9.206;2023-05-13T05:52:20;10.57;;;9.87;;
16994;SDS011;8614;48.522;9.206;2023-05-13T05:54:47;10.80;;;10.10;;
16994;SDS011;8614;48.522;9.206;2023-05-13T05:57:15;10.20;;;9.57;;
16994;SDS011;8614;48.522;9.206;2023-05-13T05:59:42;10.80;;;10.00;;
16994;SDS011;8614;48.522;9.206;2023-05-13T06:02:11;11.10;;;10.30;;
16994;SDS011;8614;48.522;9.206;2023-05-13T06:04:37;11.10;;;10.40;;
16994;SDS011;8614;48.522;9.206;2023-05-13T06:07:06;10.97;;;10.27;;
16994;SDS011;8614;48.522;9.206;2023-05-13T06:09:33;11.10;;;10.30;;
16994;SDS011;8614;48.522;9.206;2023-05-13T06:12:01;10.30;;;9.60;;
16994;SDS011;8614;48.522;9.206;2023-05-13T06:14:32;12.17;;;11.17;;
16994;SDS011;8614;48.522;9.206;2023-05-13T06:16:59;11.40;;;10.50;;
16994;SDS011;8614;48.522;9.206;2023-05-13T06:19:25;11.97;;;11.17;;
16994;SDS011;8614;48.522;9.206;2023-05-13T06:21:52;11.17;;;10.37;;
16994;SDS011;8614;48.522;9.206;2023-05-13T06:24:19;11.77;;;10.87;;
16994;SDS011;8614;48.522;9.206;2023-05-13T06:26:46;9.53;;;8.73;;
16994;SDS011;8614;48.522;9.206;2023-05-13T06:29:13;10.90;;;10.20;;
16994;SDS011;8614;48.522;9.206;2023-05-13T06:31:41;10.37;;;9.57;;
16994;SDS011;8614;48.522;9.206;2023-05-13T06:34:08;11.60;;;10.70;;
16994;SDS011;8614;48.522;9.206;2023-05-13T06:36:40;12.17;;;11.37;;
16994;SDS011;8614;48.522;9.206;2023-05-13T06:39:08;11.67;;;10.87;;
16994;SDS011;8614;48.522;9.206;2023-05-13T06:41:36;11.00;;;10.27;;
16994;SDS011;8614;48.522;9.206;2023-05-13T06:44:07;10.87;;;10.10;;
16994;SDS011;8614;48.522;9.206;2023-05-13T06:46:37;11.57;;;10.77;;
16994;SDS011;8614;48.522;9.206;2023-05-13T06:49:06;10.93;;;9.97;;
16994;SDS011;8614;48.522;9.206;2023-05-13T06:51:32;11.13;;;10.33;;
16994;SDS011;8614;48.522;9.206;2023-05-13T06:53:59;10.27;;;9.50;;
16994;SDS011;8614;48.522;9.206;2023-05-13T06:56:26;9.10;;;8.33;;
16994;SDS011;8614;48.522;9.206;2023-05-13T06:58:54;9.07;;;8.37;;
16994;SDS011;8614;48.522;9.206;2023-05-13T07:01:21;8.60;;;7.90;;
16994;SDS011;8614;48.522;9.206;2023-05-13T07:03:48;7.90;;;7.20;;
16994;SDS011;8614;48.522;9.206;2023-05-13T07:06:16;7.53;;;6.80;;
16994;SDS011;8614;48.522;9.206;2023-05-13T07:08:43;8.27;;;7.47;;
16994;SDS011;8614;48.522;9.206;2023-05-13T07:11:10;8.47;;;7.60;;
16994;SDS011;8614;48.522;9.206;2023-05-13T07:13:37;7.97;;;7.37;;
16994;SDS011;8614;48.522;9.206;2023-05-13T07:16:04;8.63;;;7.73;;
16994;SDS011;8614;48.522;9.206;2023-05-13T07:18:31;7.80;;;7.30;;
16994;SDS011;8614;48.522;9.206;2023-05-13T07:20:58;7.90;;;7.30;;
16994;SDS011;8614;48.522;9.206;2023-05-13T07:23:26;7.53;;;6.93;;
16994;SDS011;8614;48.522;9.206;2023-05-13T07:25:53;8.10;;;7.50;;
16994;SDS011;8614;48.522;9.206;2023-05-13T07:28:20;8.33;;;7.20;;
16994;SDS011;8614;48.522;9.206;2023-05-13T07:30:47;8.60;;;7.83;;
16994;SDS011;8614;48.522;9.206;2023-05-13T07:33:14;8.20;;;7.53;;
16994;SDS011;8614;48.522;9.206;2023-05-13T07:35:41;7.80;;;7.20;;
16994;SDS011;8614;48.522;9.206;2023-05-13T07:38:08;8.13;;;7.53;;
16994;SDS011;8614;48.522;9.206;2023-05-13T07:40:37;7.73;;;7.13;;
16994;SDS011;8614;48.522;9.206;2023-05-13T07:43:04;10.30;;;9.50;;
16994;SDS011;8614;48.522;9.206;2023-05-13T07:45:31;9.57;;;8.87;;
16994;SDS011;8614;48.522;9.206;2023-05-13T07:47:58;9.50;;;8.80;;
16994;SDS011;8614;48.522;9.206;2023-05-13T07:50:25;5.80;;;5.23;;
16994;SDS011;8614;48.522;9.206;2023-05-13T07:52:52;6.20;;;5.60;;
16994;SDS011;8614;48.522;9.206;2023-05-13T07:55:19;6.33;;;5.80;;
16994;SDS011;8614;48.522;9.206;2023-05-13T07:57:47;8.20;;;7.40;;
16994;SDS011;8614;48.522;9.206;2023-05-13T08:00:14;7.40;;;6.80;;
16994;SDS011;8614;48.522;9.206;2023-05-13T08:02:41;6.80;;;6.20;;
16994;SDS011;8614;48.522;9.206;2023-05-13T08:05:09;5.47;;;4.70;;
16994;SDS011;8614;48.522;9.206;2023-05-13T08:07:36;6.27;;;5.67;;
16994;SDS011;8614;48.522;9.206;2023-05-13T08:10:03;6.13;;;5.40;;
16994;SDS011;8614;48.522;9.206;2023-05-13T08:12:31;8.47;;;5.57;;
16994;SDS011;8614;48.522;9.206;2023-05-13T08:15:00;6.03;;;5.37;;
16994;SDS011;8614;48.522;9.206;2023-05-13T08:17:28;9.97;;;9.17;;
16994;SDS011;8614;48.522;9.206;2023-05-13T08:19:55;10.07;;;9.30;;
16994;SDS011;8614;48.522;9.206;2023-05-13T08:22:22;7.70;;;6.80;;
16994;SDS011;8614;48.522;9.206;2023-05-13T08:24:49;8.00;;;7.20;;
16994;SDS011;8614;48.522;9.206;2023-05-13T08:27:16;9.77;;;8.93;;
16994;SDS011;8614;48.522;9.206;2023-05-13T08:29:42;9.17;;;8.37;;
16994;SDS011;8614;48.522;9.206;2023-05-13T08:32:11;8.33;;;7.63;;
16994;SDS011;8614;48.522;9.206;2023-05-13T08:34:37;6.37;;;5.60;;
16994;SDS011;8614;48.522;9.206;2023-05-13T08:37:05;8.83;;;8.10;;
16994;SDS011;8614;48.522;9.206;2023-05-13T08:39:31;7.40;;;6.60;;
16994;SDS011;8614;48.522;9.206;2023-05-13T08:41:58;6.50;;;5.73;;
16994;SDS011;8614;48.522;9.206;2023-05-13T08:44:28;6.80;;;5.97;;
16994;SDS011;8614;48.522;9.206;2023-05-13T08:46:59;6.53;;;5.87;;
16994;SDS011;8614;48.522;9.206;2023-05-13T08:49:30;6.27;;;5.10;;
16994;SDS011;8614;48.522;9.206;2023-05-13T08:51:59;5.93;;;5.30;;
16994;SDS011;8614;48.522;9.206;2023-05-13T08:54:26;6.20;;;5.60;;
16994;SDS011;8614;48.522;9.206;2023-05-13T08:56:54;6.40;;;5.77;;
16994;SDS011;8614;48.522;9.206;2023-05-13T08:59:21;7.97;;;6.40;;
16994;SDS011;8614;48.522;9.206;2023-05-13T09:01:48;7.37;;;6.10;;
16994;SDS011;8614;48.522;9.206;2023-05-13T09:04:15;6.73;;;6.03;;
16994;SDS011;8614;48.522;9.206;2023-05-13T09:06:46;12.13;;;11.13;;
16994;SDS011;8614;48.522;9.206;2023-05-13T09:09:13;9.47;;;8.57;;
16994;SDS011;8614;48.522;9.206;2023-05-13T09:11:40;10.37;;;9.47;;
16994;SDS011;8614;48.522;9.206;2023-05-13T09:14:08;9.17;;;8.13;;
16994;SDS011;8614;48.522;9.206;2023-05-13T09:16:36;8.00;;;7.23;;
16994;SDS011;8614;48.522;9.206;2023-05-13T09:19:04;6.80;;;6.10;;
16994;SDS011;8614;48.522;9.206;2023-05-13T09:21:32;7.60;;;6.37;;
16994;SDS011;8614;48.522;9.206;2023-05-13T09:24:11;7.50;;;6.20;;
16994;SDS011;8614;48.522;9.206;2023-05-13T09:26:42;8.40;;;5.73;;
16994;SDS011;8614;48.522;9.206;2023-05-13T09:29:17;8.27;;;7.40;;
16994;SDS011;8614;48.522;9.206;2023-05-13T09:31:48;7.30;;;6.60;;
16994;SDS011;8614;48.522;9.206;2023-05-13T09:34:23;7.47;;;6.77;;
16994;SDS011;8614;48.522;9.206;2023-05-13T09:36:55;8.07;;;7.30;;
16994;SDS011;8614;48.522;9.206;2023-05-13T09:39:24;10.73;;;9.90;;
16994;SDS011;8614;48.522;9.206;2023-05-13T09:41:51;9.90;;;9.10;;
16994;SDS011;8614;48.522;9.206;2023-05-13T09:44:18;10.33;;;9.53;;
16994;SDS011;8614;48.522;9.206;2023-05-13T09:46:46;11.40;;;10.50;;
16994;SDS011;8614;48.522;9.206;2023-05-13T09:49:13;11.07;;;10.17;;
16994;SDS011;8614;48.522;9.206;2023-05-13T09:51:41;10.63;;;9.73;;
16994;SDS011;8614;48.522;9.206;2023-05-13T09:54:09;9.00;;;8.20;;
16994;SDS011;8614;48.522;9.206;2023-05-13T09:56:37;8.03;;;6.50;;
16994;SDS011;8614;48.522;9.206;2023-05-13T09:59:04;7.07;;;6.47;;
16994;SDS011;8614;48.522;9.206;2023-05-13T10:01:30;8.47;;;7.70;;
16994;SDS011;8614;48.522;9.206;2023-05-13T10:03:59;10.07;;;9.27;;
16994;SDS011;8614;48.522;9.206;2023-05-13T10:06:28;9.80;;;9.00;;
16994;SDS011;8614;48.522;9.206;2023-05-13T10:08:57;8.93;;;8.23;;
16994;SDS011;8614;48.522;9.206;2023-05-13T10:11:25;8.57;;;7.77;;
16994;SDS011;8614;48.522;9.206;2023-05-13T10:13:57;12.67;;;11.67;;
16994;SDS011;8614;48.522;9.206;2023-05-13T10:16:26;7.00;;;6.40;;
16994;SDS011;8614;48.522;9.206;2023-05-13T10:18:55;8.87;;;6.10;;
16994;SDS011;8614;48.522;9.206;2023-05-13T10:21:22;6.30;;;5.70;;
16994;SDS011;8614;48.522;9.206;2023-05-13T10:23:49;7.67;;;5.73;;
16994;SDS011;8614;48.522;9.206;2023-05-13T10:26:17;5.63;;;5.10;;
16994;SDS011;8614;48.522;9.206;2023-05-13T10:28:45;7.40;;;5.30;;
16994;SDS011;8614;48.522;9.206;2023-05-13T10:31:14;8.80;;;6.03;;
16994;SDS011;8614;48.522;9.206;2023-05-13T10:33:42;7.10;;;6.50;;
16994;SDS011;8614;48.522;9.206;2023-05-13T10:36:15;6.90;;;6.40;;
16994;SDS011;8614;48.522;9.206;2023-05-13T10:38:59;8.77;;;7.23;;
16994;SDS011;8614;48.522;9.206;2023-05-13T10:44:40;6.80;;;6.20;;
16994;SDS011;8614;48.522;9.206;2023-05-13T10:47:08;6.40;;;5.80;;
16994;SDS011;8614;48.522;9.206;2023-05-13T10:49:36;6.30;;;5.90;;
16994;SDS011;8614;48.522;9.206;2023-05-13T10:52:03;8.03;;;7.43;;
16994;SDS011;8614;48.522;9.206;2023-05-13T10:54:35;6.37;;;5.77;;
16994;SDS011;8614;48.522;9.206;2023-05-13T10:57:03;6.93;;;6.30;;
16994;SDS011;8614;48.522;9.206;2023-05-13T10:59:30;8.97;;;8.17;;
16994;SDS011;8614;48.522;9.206;2023-05-13T11:01:59;6.80;;;6.30;;
16994;SDS011;8614;48.522;9.206;2023-05-13T11:04:28;5.63;;;5.13;;
16994;SDS011;8614;48.522;9.206;2023-05-13T11:06:56;6.10;;;5.60;;
16994;SDS011;8614;48.522;9.206;2023-05-13T11:09:39;10.27;;;7.07;;
16994;SDS011;8614;48.522;9.206;2023-05-13T11:12:06;6.07;;;5.57;;
16994;SDS011;8614;48.522;9.206;2023-05-13T11:14:40;5.70;;;5.20;;
16994;SDS011;8614;48.522;9.206;2023-05-13T11:17:09;5.10;;;4.60;;
16994;SDS011;8614;48.522;9.206;2023-05-13T11:19:45;5.60;;;5.10;;
16994;SDS011;8614;48.522;9.206;2023-05-13T11:22:14;4.80;;;4.47;;
16994;SDS011;8614;48.522;9.206;2023-05-13T11:24:44;5.03;;;4.63;;
16994;SDS011;8614;48.522;9.206;2023-05-13T11:27:13;4.23;;;3.83;;
16994;SDS011;8614;48.522;9.206;2023-05-13T11:29:46;7.40;;;6.80;;
16994;SDS011;8614;48.522;9.206;2023-05-13T11:32:14;4.20;;;3.80;;
16994;SDS011;8614;48.522;9.206;2023-05-13T11:34:50;4.40;;;4.00;;
16994;SDS011;8614;48.522;9.206;2023-05-13T11:37:17;5.07;;;4.67;;
16994;SDS011;8614;48.522;9.206;2023-05-13T11:39:44;7.50;;;6.97;;
16994;SDS011;8614;48.522;9.206;2023-05-13T11:42:11;7.23;;;6.73;;
16994;SDS011;8614;48.522;9.206;2023-05-13T11:44:43;6.43;;;5.93;;
16994;SDS011;8614;48.522;9.206;2023-05-13T11:47:11;6.87;;;6.37;;
16994;SDS011;8614;48.522;9.206;2023-05-13T11:49:38;4.70;;;4.30;;
16994;SDS011;8614;48.522;9.206;2023-05-13T11:52:08;4.93;;;4.20;;
16994;SDS011;8614;48.522;9.206;2023-05-13T11:54:39;4.53;;;3.97;;
16994;SDS011;8614;48.522;9.206;2023-05-13T11:57:14;7.47;;;6.80;;
16994;SDS011;8614;48.522;9.206;2023-05-13T11:59:48;8.17;;;7.67;;
16994;SDS011;8614;48.522;9.206;2023-05-13T12:02:18;6.07;;;5.67;;
16994;SDS011;8614;48.522;9.206;2023-05-13T12:04:46;6.93;;;6.43;;
16994;SDS011;8614;48.522;9.206;2023-05-13T12:07:14;7.53;;;7.03;;
16994;SDS011;8614;48.522;9.206;2023-05-13T12:09:45;6.93;;;6.47;;
16994;SDS011;8614;48.522;9.206;2023-05-13T12:12:12;6.93;;;6.43;;
16994;SDS011;8614;48.522;9.206;2023-05-13T12:14:40;6.73;;;6.23;;
16994;SDS011;8614;48.522;9.206;2023-05-13T12:17:07;8.33;;;7.73;;
16994;SDS011;8614;48.522;9.206;2023-05-13T12:19:35;7.03;;;6.53;;
16994;SDS011;8614;48.522;9.206;2023-05-13T12:22:02;6.87;;;6.33;;
16994;SDS011;8614;48.522;9.206;2023-05-13T12:24:32;7.27;;;6.77;;
16994;SDS011;8614;48.522;9.206;2023-05-13T12:27:03;8.67;;;6.63;;
16994;SDS011;8614;48.522;9.206;2023-05-13T12:29:38;5.57;;;5.00;;
16994;SDS011;8614;48.522;9.206;2023-05-13T12:32:06;5.40;;;5.00;;
16994;SDS011;8614;48.522;9.206;2023-05-13T12:34:35;5.40;;;4.93;;
16994;SDS011;8614;48.522;9.206;2023-05-13T12:37:09;5.00;;;4.60;;
16994;SDS011;8614;48.522;9.206;2023-05-13T12:39:38;7.00;;;5.60;;
16994;SDS011;8614;48.522;9.206;2023-05-13T12:42:06;5.73;;;5.30;;
16994;SDS011;8614;48.522;9.206;2023-05-13T12:44:40;5.27;;;4.77;;
16994;SDS011;8614;48.522;9.206;2023-05-13T12:47:07;4.77;;;4.37;;
16994;SDS011;8614;48.522;9.206;2023-05-13T12:49:49;5.63;;;4.90;;
16994;SDS011;8614;48.522;9.206;2023-05-13T12:52:16;4.93;;;4.53;;
16994;SDS011;8614;48.522;9.206;2023-05-13T12:54:44;4.70;;;4.23;;
16994;SDS011;8614;48.522;9.206;2023-05-13T12:57:11;5.20;;;4.70;;
16994;SDS011;8614;48.522;9.206;2023-05-13T12:59:40;4.97;;;4.57;;
16994;SDS011;8614;48.522;9.206;2023-05-13T13:02:07;4.90;;;4.50;;
16994;SDS011;8614;48.522;9.206;2023-05-13T13:04:34;4.53;;;4.13;;
16994;SDS011;8614;48.522;9.206;2023-05-13T13:07:01;4.80;;;4.40;;
16994;SDS011;8614;48.522;9.206;2023-05-13T13:09:29;4.83;;;4.33;;
16994;SDS011;8614;48.522;9.206;2023-05-13T13:11:57;4.53;;;4.20;;
16994;SDS011;8614;48.522;9.206;2023-05-13T13:14:23;5.10;;;4.20;;
16994;SDS011;8614;48.522;9.206;2023-05-13T13:16:50;4.30;;;3.90;;
16994;SDS011;8614;48.522;9.206;2023-05-13T13:19:17;5.20;;;4.43;;
16994;SDS011;8614;48.522;9.206;2023-05-13T13:21:44;7.70;;;7.10;;
16994;SDS011;8614;48.522;9.206;2023-05-13T13:24:11;5.90;;;5.30;;
16994;SDS011;8614;48.522;9.206;2023-05-13T13:26:37;4.47;;;4.07;;
16994;SDS011;8614;48.522;9.206;2023-05-13T13:29:06;4.50;;;4.10;;
16994;SDS011;8614;48.522;9.206;2023-05-13T13:31:32;5.70;;;4.10;;
16994;SDS011;8614;48.522;9.206;2023-05-13T13:33:59;4.57;;;4.17;;
16994;SDS011;8614;48.522;9.206;2023-05-13T13:36:28;7.20;;;6.60;;
16994;SDS011;8614;48.522;9.206;2023-05-13T13:38:55;4.67;;;4.27;;
16994;SDS011;8614;48.522;9.206;2023-05-13T13:41:22;4.40;;;4.00;;
16994;SDS011;8614;48.522;9.206;2023-05-13T13:43:50;7.40;;;6.80;;
16994;SDS011;8614;48.522;9.206;2023-05-13T13:46:18;8.43;;;7.73;;
16994;SDS011;8614;48.522;9.206;2023-05-13T13:48:45;9.50;;;8.80;;
16994;SDS011;8614;48.522;9.206;2023-05-13T13:51:12;9.80;;;9.20;;
16994;SDS011;8614;48.522;9.206;2023-05-13T13:53:38;10.33;;;9.53;;
16994;SDS011;8614;48.522;9.206;2023-05-13T13:56:05;5.77;;;4.33;;
16994;SDS011;8614;48.522;9.206;2023-05-13T13:58:32;5.33;;;4.60;;
16994;SDS011;8614;48.522;9.206;2023-05-13T14:00:59;4.40;;;4.00;;
16994;SDS011;8614;48.522;9.206;2023-05-13T14:03:27;7.20;;;4.80;;
16994;SDS011;8614;48.522;9.206;2023-05-13T14:05:54;9.07;;;8.30;;
16994;SDS011;8614;48.522;9.206;2023-05-13T14:08:21;6.00;;;5.40;;
16994;SDS011;8614;48.522;9.206;2023-05-13T14:10:48;4.80;;;4.40;;
16994;SDS011;8614;48.522;9.206;2023-05-13T14:13:16;8.13;;;7.53;;
16994;SDS011;8614;48.522;9.206;2023-05-13T14:15:43;9.73;;;8.97;;
16994;SDS011;8614;48.522;9.206;2023-05-13T14:18:10;6.77;;;6.17;;
16994;SDS011;8614;48.522;9.206;2023-05-13T14:20:38;5.03;;;4.63;;
16994;SDS011;8614;48.522;9.206;2023-05-13T14:23:05;4.67;;;4.23;;
16994;SDS011;8614;48.522;9.206;2023-05-13T14:25:31;7.33;;;6.73;;
16994;SDS011;8614;48.522;9.206;2023-05-13T14:27:58;7.73;;;7.17;;
16994;SDS011;8614;48.522;9.206;2023-05-13T14:30:25;5.93;;;4.80;;
16994;SDS011;8614;48.522;9.206;2023-05-13T14:32:52;5.50;;;4.17;;
16994;SDS011;8614;48.522;9.206;2023-05-13T14:35:19;4.93;;;4.47;;
16994;SDS011;8614;48.522;9.206;2023-05-13T14:37:47;4.87;;;4.37;;
16994;SDS011;8614;48.522;9.206;2023-05-13T14:40:14;5.57;;;4.30;;
16994;SDS011;8614;48.522;9.206;2023-05-13T14:42:41;7.53;;;6.93;;
16994;SDS011;8614;48.522;9.206;2023-05-13T14:45:08;5.03;;;4.53;;
16994;SDS011;8614;48.522;9.206;2023-05-13T14:47:35;5.30;;;4.67;;
16994;SDS011;8614;48.522;9.206;2023-05-13T14:50:03;5.57;;;4.57;;
16994;SDS011;8614;48.522;9.206;2023-05-13T14:52:30;4.90;;;4.50;;
16994;SDS011;8614;48.522;9.206;2023-05-13T14:54:58;5.97;;;5.40;;
16994;SDS011;8614;48.522;9.206;2023-05-13T14:57:25;7.03;;;6.53;;
16994;SDS011;8614;48.522;9.206;2023-05-13T14:59:52;5.90;;;5.40;;